createdAt,value
2018-06-22T00:00:18.456Z,49.81
2018-06-22T00:02:44.860Z,49.82
2018-06-22T00:05:11.196Z,49.76
2018-06-22T00:07:37.571Z,49.81
2018-06-22T00:10:03.958Z,49.88
2018-06-22T00:12:30.302Z,49.80
2018-06-22T00:14:56.683Z,49.86
2018-06-22T00:17:22.989Z,49.77
2018-06-22T00:19:49.355Z,49.90
2018-06-22T00:22:15.675Z,49.91
2018-06-22T00:24:41.991Z,49.87
2018-06-22T00:27:08.312Z,49.83
2018-06-22T00:29:34.635Z,49.90
2018-06-22T00:32:00.979Z,49.87
2018-06-22T00:34:27.356Z,49.94
2018-06-22T00:36:53.780Z,49.96
2018-06-22T00:39:20.119Z,50.02
2018-06-22T00:41:46.443Z,49.93
2018-06-22T00:44:12.831Z,49.92
2018-06-22T00:46:39.264Z,49.86
2018-06-22T00:49:05.643Z,49.98
2018-06-22T00:51:31.976Z,49.95
2018-06-22T00:53:58.453Z,49.93
2018-06-22T00:56:24.848Z,49.99
2018-06-22T00:58:51.231Z,49.98
2018-06-22T01:01:17.759Z,50.05
2018-06-22T01:03:44.156Z,50.09
2018-06-22T01:06:10.478Z,50.29
2018-06-22T01:08:36.821Z,50.28
2018-06-22T01:11:03.314Z,50.59
2018-06-22T01:13:29.642Z,50.69
2018-06-22T01:15:56.043Z,50.79
2018-06-22T01:18:22.355Z,50.85
2018-06-22T01:20:48.883Z,50.74
2018-06-22T01:23:15.289Z,51.00
2018-06-22T01:25:41.613Z,50.90
2018-06-22T01:28:07.923Z,50.96
2018-06-22T01:30:34.348Z,51.12
2018-06-22T01:33:00.927Z,51.11
2018-06-22T01:35:27.291Z,51.21
2018-06-22T01:37:53.651Z,51.15
2018-06-22T01:40:20.180Z,51.31
2018-06-22T01:42:46.676Z,51.26
2018-06-22T01:45:13.055Z,51.18
2018-06-22T01:47:39.435Z,51.14
2018-06-22T01:50:05.777Z,51.20
2018-06-22T01:52:32.108Z,51.25
2018-06-22T01:54:58.590Z,51.22
2018-06-22T01:57:25.201Z,51.19
2018-06-22T01:59:51.588Z,51.13
2018-06-22T02:02:17.925Z,51.25
2018-06-22T02:04:44.287Z,51.17
2018-06-22T02:07:10.774Z,51.17
2018-06-22T02:09:37.159Z,51.20
2018-06-22T02:12:03.497Z,51.12
2018-06-22T02:14:29.860Z,51.08
2018-06-22T02:16:56.294Z,51.07
2018-06-22T02:19:22.615Z,51.11
2018-06-22T02:21:49.001Z,51.13
2018-06-22T02:24:15.379Z,51.01
2018-06-22T02:26:41.828Z,50.98
2018-06-22T02:29:08.185Z,50.96
2018-06-22T02:31:34.544Z,51.02
2018-06-22T02:34:00.939Z,51.00
2018-06-22T02:36:27.259Z,51.00
2018-06-22T02:38:53.627Z,50.90
2018-06-22T02:41:19.932Z,50.91
2018-06-22T02:43:46.346Z,50.97
2018-06-22T02:46:12.707Z,51.04
2018-06-22T02:48:39.084Z,51.01
2018-06-22T02:51:05.400Z,50.96
2018-06-22T02:53:31.723Z,51.01
2018-06-22T02:55:58.075Z,51.06
2018-06-22T02:58:24.421Z,50.90
2018-06-22T03:00:50.736Z,51.01
2018-06-22T03:03:17.051Z,50.81
2018-06-22T03:05:43.416Z,51.16
2018-06-22T03:08:09.919Z,51.04
2018-06-22T03:10:36.272Z,51.04
2018-06-22T03:13:02.662Z,50.96
2018-06-22T03:15:29.019Z,51.01
2018-06-22T03:17:55.379Z,50.56
2018-06-22T03:20:21.699Z,50.37
2018-06-22T03:22:48.024Z,50.21
2018-06-22T03:25:14.426Z,49.98
2018-06-22T03:27:40.904Z,49.75
2018-06-22T03:30:07.361Z,49.53
2018-06-22T03:32:33.828Z,49.43
2018-06-22T03:35:00.154Z,49.23
2018-06-22T03:37:26.480Z,49.20
2018-06-22T03:39:52.964Z,49.04
2018-06-22T03:42:19.300Z,49.02
2018-06-22T03:44:45.735Z,48.93
2018-06-22T03:47:12.099Z,48.82
2018-06-22T03:49:38.420Z,48.82
2018-06-22T03:52:04.788Z,48.62
2018-06-22T03:54:31.354Z,48.59
2018-06-22T03:56:57.716Z,48.54
2018-06-22T03:59:24.230Z,48.38
2018-06-22T04:01:50.604Z,48.12
2018-06-22T04:04:17.005Z,48.02
2018-06-22T04:06:43.376Z,48.12
2018-06-22T04:09:09.761Z,48.18
2018-06-22T04:11:36.097Z,48.14
2018-06-22T04:14:02.408Z,48.15
2018-06-22T04:16:28.866Z,48.27
2018-06-22T04:18:55.220Z,48.11
2018-06-22T04:21:21.600Z,47.95
2018-06-22T04:23:47.953Z,47.68
2018-06-22T04:26:14.336Z,47.99
2018-06-22T04:28:40.785Z,48.00
2018-06-22T04:31:07.169Z,47.94
2018-06-22T04:33:33.509Z,47.71
2018-06-22T04:35:59.893Z,47.96
2018-06-22T04:38:26.280Z,48.03
2018-06-22T04:40:52.640Z,47.96
2018-06-22T04:43:19.046Z,47.82
2018-06-22T04:45:45.430Z,47.95
2018-06-22T04:48:11.964Z,48.01
2018-06-22T04:50:38.299Z,47.85
2018-06-22T04:53:04.650Z,47.78
2018-06-22T04:55:31.029Z,47.89
2018-06-22T04:57:57.395Z,47.89
2018-06-22T05:00:23.744Z,48.07
2018-06-22T05:02:50.091Z,48.06
2018-06-22T05:05:16.578Z,47.99
2018-06-22T05:07:42.902Z,48.21
2018-06-22T05:10:09.310Z,48.15
2018-06-22T05:12:35.686Z,48.18
2018-06-22T05:15:02.068Z,48.23
2018-06-22T05:17:28.409Z,48.13
2018-06-22T05:19:54.756Z,48.18
2018-06-22T05:22:21.141Z,47.99
2018-06-22T05:24:47.477Z,48.27
2018-06-22T05:27:13.823Z,48.39
2018-06-22T05:29:40.205Z,48.26
2018-06-22T05:32:06.613Z,48.15
2018-06-22T05:34:33.205Z,48.25
2018-06-22T05:36:59.609Z,48.33
2018-06-22T05:39:25.950Z,48.32
2018-06-22T05:41:52.295Z,48.61
2018-06-22T05:44:18.770Z,48.25
2018-06-22T05:46:45.128Z,48.03
2018-06-22T05:49:11.508Z,48.43
2018-06-22T05:51:37.835Z,48.43
2018-06-22T05:54:04.313Z,48.60
2018-06-22T05:56:30.716Z,48.53
2018-06-22T05:58:57.099Z,48.86
2018-06-22T06:01:23.508Z,48.73
2018-06-22T06:03:49.852Z,48.86
2018-06-22T06:06:16.175Z,49.00
2018-06-22T06:08:42.668Z,49.16
2018-06-22T06:11:09.265Z,48.94
2018-06-22T06:13:35.685Z,48.95
2018-06-22T06:16:02.085Z,48.96
2018-06-22T06:18:28.871Z,48.92
2018-06-22T06:20:55.809Z,49.39
2018-06-22T06:23:22.284Z,48.91
2018-06-22T06:25:48.628Z,49.02
2018-06-22T06:28:15.026Z,48.91
2018-06-22T06:30:41.504Z,48.53
2018-06-22T06:33:07.959Z,49.16
2018-06-22T06:35:34.405Z,49.25
2018-06-22T06:38:00.872Z,49.00
2018-06-22T06:40:27.512Z,49.51
2018-06-22T06:42:54.000Z,49.12
2018-06-22T06:45:20.393Z,48.86
2018-06-22T06:47:46.728Z,48.25
2018-06-22T06:50:13.148Z,48.21
2018-06-22T06:52:39.543Z,48.34
2018-06-22T06:55:06.032Z,48.37
2018-06-22T06:57:32.388Z,48.64
2018-06-22T06:59:58.793Z,48.63
2018-06-22T07:02:25.200Z,48.67
2018-06-22T07:04:51.567Z,48.30
2018-06-22T07:07:17.935Z,48.84
2018-06-22T07:09:44.322Z,48.69
2018-06-22T07:12:10.670Z,48.89
2018-06-22T07:14:37.146Z,48.84
2018-06-22T07:17:03.504Z,48.71
2018-06-22T07:19:29.924Z,48.91
2018-06-22T07:21:56.352Z,48.83
2018-06-22T07:24:22.704Z,49.25
2018-06-22T07:26:49.090Z,48.96
2018-06-22T07:29:15.417Z,48.46
2018-06-22T07:31:41.808Z,48.93
2018-06-22T07:34:08.291Z,48.66
2018-06-22T07:36:34.629Z,49.06
2018-06-22T07:39:01.089Z,48.81
2018-06-22T07:41:27.733Z,49.16
2018-06-22T07:43:54.638Z,48.99
2018-06-22T07:46:21.003Z,48.88
2018-06-22T07:48:47.481Z,48.99
2018-06-22T07:51:13.922Z,49.06
2018-06-22T07:53:40.348Z,49.25
2018-06-22T07:56:06.776Z,49.43
2018-06-22T07:58:33.129Z,49.55
2018-06-22T08:00:59.491Z,49.24
2018-06-22T08:03:25.952Z,49.33
2018-06-22T08:05:52.391Z,49.37
2018-06-22T08:08:18.840Z,49.36
2018-06-22T08:10:45.186Z,49.60
2018-06-22T08:13:11.705Z,49.59
2018-06-22T08:15:38.974Z,49.65
2018-06-22T08:18:05.408Z,49.49
2018-06-22T08:20:31.811Z,49.93
2018-06-22T08:22:58.291Z,49.69
2018-06-22T08:25:24.652Z,49.83
2018-06-22T08:27:51.012Z,49.72
2018-06-22T08:30:17.381Z,49.70
2018-06-22T08:32:43.828Z,49.81
2018-06-22T08:35:10.227Z,49.61
2018-06-22T08:37:36.588Z,49.78
2018-06-22T08:40:02.942Z,49.61
2018-06-22T08:42:29.406Z,49.58
2018-06-22T08:44:55.768Z,49.86
2018-06-22T08:47:22.130Z,50.02
2018-06-22T08:49:48.491Z,49.51
2018-06-22T08:52:14.961Z,49.41
2018-06-22T08:54:41.424Z,49.83
2018-06-22T08:57:07.825Z,49.92
2018-06-22T08:59:34.177Z,50.05
2018-06-22T09:02:00.579Z,49.77
2018-06-22T09:06:48.177Z,49.41
2018-06-22T09:09:14.617Z,49.34
2018-06-22T09:11:41.260Z,49.15
2018-06-22T09:14:07.640Z,49.52
2018-06-22T09:16:34.203Z,49.52
2018-06-22T09:19:00.924Z,49.39
2018-06-22T09:21:27.451Z,49.80
2018-06-22T09:23:54.018Z,49.96
2018-06-22T09:26:20.472Z,49.99
2018-06-22T09:28:46.924Z,49.19
2018-06-22T09:31:13.524Z,49.27
2018-06-22T09:33:40.134Z,49.75
2018-06-22T09:36:06.774Z,49.52
2018-06-22T09:38:33.437Z,49.85
2018-06-22T09:40:59.899Z,49.63
2018-06-22T09:43:26.354Z,49.05
2018-06-22T09:45:52.929Z,49.20
2018-06-22T09:48:19.384Z,49.39
2018-06-22T09:50:45.828Z,48.92
2018-06-22T09:53:12.302Z,49.09
2018-06-22T09:55:38.673Z,49.42
2018-06-22T09:58:05.218Z,48.50
2018-06-22T10:00:31.594Z,49.30
2018-06-22T10:02:58.039Z,49.74
2018-06-22T10:05:24.405Z,49.08
2018-06-22T10:07:50.840Z,48.98
2018-06-22T10:10:17.250Z,49.36
2018-06-22T10:12:43.720Z,49.65
2018-06-22T10:15:10.194Z,49.01
2018-06-22T10:17:36.635Z,48.81
2018-06-22T10:20:03.099Z,49.30
2018-06-22T10:22:29.572Z,49.28
2018-06-22T10:24:56.126Z,49.18
2018-06-22T10:27:22.899Z,48.89
2018-06-22T10:29:49.371Z,48.97
2018-06-22T10:32:15.933Z,49.26
2018-06-22T10:34:42.682Z,48.97
2018-06-22T10:37:09.163Z,49.22
2018-06-22T10:39:39.017Z,49.15
2018-06-22T10:42:05.357Z,48.95
2018-06-22T10:44:31.856Z,48.90
2018-06-22T10:46:58.457Z,48.69
2018-06-22T10:52:07.446Z,49.09
2018-06-22T10:54:38.784Z,49.16
2018-06-22T10:57:06.581Z,48.73
2018-06-22T11:04:48.851Z,48.56
2018-06-22T11:07:16.098Z,48.39
2018-06-22T11:09:48.923Z,48.48
2018-06-22T11:12:17.676Z,49.00
2018-06-22T11:14:46.031Z,48.63
2018-06-22T11:17:13.573Z,48.66
2018-06-22T11:22:17.864Z,48.68
2018-06-22T11:24:51.326Z,48.53
2018-06-22T11:27:17.953Z,49.19
2018-06-22T11:29:44.784Z,49.26
2018-06-22T11:32:19.543Z,48.99
2018-06-22T11:34:47.090Z,49.00
2018-06-22T11:37:14.357Z,49.20
2018-06-22T11:39:45.535Z,48.74
2018-06-22T11:42:12.132Z,47.95
2018-06-22T11:44:42.213Z,47.89
2018-06-22T11:47:11.931Z,47.20
2018-06-22T11:49:41.597Z,47.00
2018-06-22T11:52:12.145Z,47.27
2018-06-22T11:57:13.334Z,48.19
2018-06-22T11:59:42.440Z,48.67
2018-06-22T12:02:13.218Z,48.91
2018-06-22T12:04:43.942Z,49.49
2018-06-22T12:07:15.581Z,49.88
2018-06-22T12:12:41.242Z,50.08
2018-06-22T12:15:13.197Z,50.37
2018-06-22T12:17:40.624Z,50.22
2018-06-22T12:22:42.524Z,50.01
2018-06-22T12:25:09.546Z,49.92
2018-06-22T12:27:38.320Z,49.86
2018-06-22T12:30:08.240Z,49.71
2018-06-22T12:35:13.907Z,49.92
2018-06-22T12:37:46.122Z,50.36
2018-06-22T12:40:26.006Z,49.74
2018-06-22T12:42:55.807Z,50.10
2018-06-22T12:45:22.592Z,50.06
2018-06-22T12:47:50.935Z,50.11
2018-06-22T12:50:18.296Z,50.27
2018-06-22T12:52:45.292Z,50.29
2018-06-22T12:55:13.086Z,50.76
2018-06-22T12:57:39.982Z,50.50
2018-06-22T13:03:37.292Z,50.75
2018-06-22T13:06:06.129Z,50.77
2018-06-22T13:08:32.670Z,50.46
2018-06-22T13:10:59.240Z,50.79
2018-06-22T13:13:25.708Z,51.14
2018-06-22T13:15:55.358Z,50.48
2018-06-22T13:18:21.766Z,51.33
2018-06-22T13:20:48.244Z,51.07
2018-06-22T13:23:16.347Z,51.13
2018-06-22T13:25:43.155Z,51.42
2018-06-22T13:28:09.783Z,51.28
2018-06-22T13:30:36.732Z,51.07
2018-06-22T13:33:03.317Z,51.12
2018-06-22T13:35:30.834Z,51.33
2018-06-22T13:37:57.594Z,51.25
2018-06-22T13:40:23.967Z,51.29
2018-06-22T13:42:50.618Z,51.68
2018-06-22T13:45:17.102Z,51.13
2018-06-22T13:47:43.584Z,51.51
2018-06-22T13:50:10.011Z,51.08
2018-06-22T13:52:37.857Z,51.02
2018-06-22T13:55:04.355Z,51.05
2018-06-22T13:57:30.726Z,51.16
2018-06-22T13:59:57.116Z,50.81
2018-06-22T14:02:23.592Z,51.15
2018-06-22T14:04:49.944Z,51.43
2018-06-22T14:07:16.286Z,51.05
2018-06-22T14:09:43.299Z,51.08
2018-06-22T14:12:09.748Z,51.23
2018-06-22T14:14:36.298Z,51.58
2018-06-22T14:17:03.029Z,51.66
2018-06-22T14:19:29.407Z,51.45
2018-06-22T14:21:56.747Z,51.69
2018-06-22T14:24:23.167Z,51.85
2018-06-22T14:26:49.508Z,52.06
2018-06-22T14:29:16.004Z,51.77
2018-06-22T14:31:42.412Z,52.02
2018-06-22T14:34:08.877Z,52.22
2018-06-22T14:36:35.506Z,51.58
2018-06-22T14:39:02.180Z,51.61
2018-06-22T14:41:28.574Z,51.94
2018-06-22T14:43:54.943Z,52.05
2018-06-22T14:46:21.396Z,52.36
2018-06-22T14:48:47.784Z,52.72
2018-06-22T14:51:14.165Z,52.33
2018-06-22T14:53:40.531Z,52.51
2018-06-22T14:56:06.951Z,52.19
2018-06-22T14:58:33.385Z,51.87
2018-06-22T15:00:59.772Z,51.97
2018-06-22T15:03:26.200Z,52.08
2018-06-22T15:05:52.611Z,51.64
2018-06-22T15:08:18.935Z,52.06
2018-06-22T15:10:45.287Z,51.97
2018-06-22T15:13:12.168Z,51.78
2018-06-22T15:15:38.622Z,51.92
2018-06-22T15:18:05.162Z,52.34
2018-06-22T15:20:31.586Z,52.49
2018-06-22T15:22:57.970Z,52.04
2018-06-22T15:25:24.298Z,52.08
2018-06-22T15:27:50.703Z,51.75
2018-06-22T15:30:17.046Z,51.75
2018-06-22T15:32:43.371Z,52.07
2018-06-22T15:35:09.729Z,52.19
2018-06-22T15:37:36.138Z,52.24
2018-06-22T15:40:02.562Z,52.21
2018-06-22T15:42:28.921Z,52.55
2018-06-22T15:44:55.301Z,52.78
2018-06-22T15:47:21.666Z,53.17
2018-06-22T15:49:47.996Z,52.51
2018-06-22T15:52:14.331Z,52.84
2018-06-22T15:54:40.703Z,53.07
2018-06-22T15:57:07.097Z,53.30
2018-06-22T15:59:33.446Z,53.28
2018-06-22T16:01:59.842Z,53.21
2018-06-22T16:04:26.215Z,53.11
2018-06-22T16:06:52.578Z,53.08
2018-06-22T16:09:18.940Z,53.46
2018-06-22T16:11:45.277Z,53.41
2018-06-22T16:14:11.657Z,53.46
2018-06-22T16:16:37.982Z,53.48
2018-06-22T16:19:04.431Z,53.81
2018-06-22T16:21:30.902Z,53.28
2018-06-22T16:23:57.319Z,53.07
2018-06-22T16:26:23.676Z,53.42
2018-06-22T16:28:50.011Z,53.18
2018-06-22T16:31:16.382Z,53.25
2018-06-22T16:33:42.745Z,53.30
2018-06-22T16:36:09.121Z,53.42
2018-06-22T16:38:35.558Z,53.20
2018-06-22T16:41:01.931Z,53.57
2018-06-22T16:43:28.277Z,53.56
2018-06-22T16:45:54.641Z,53.46
2018-06-22T16:48:21.055Z,53.63
2018-06-22T16:50:47.485Z,53.45
2018-06-22T16:53:13.836Z,54.09
2018-06-22T16:55:40.163Z,53.79
2018-06-22T16:58:06.539Z,53.35
2018-06-22T17:00:32.965Z,53.58
2018-06-22T17:02:59.303Z,53.41
2018-06-22T17:05:25.692Z,53.29
2018-06-22T17:07:52.032Z,53.06
2018-06-22T17:10:18.460Z,52.84
2018-06-22T17:12:44.856Z,52.78
2018-06-22T17:15:11.175Z,52.99
2018-06-22T17:17:37.502Z,52.63
2018-06-22T17:20:03.875Z,52.45
2018-06-22T17:22:30.191Z,52.78
2018-06-22T17:24:56.524Z,52.80
2018-06-22T17:27:22.848Z,52.93
2018-06-22T17:29:49.167Z,52.92
2018-06-22T17:32:15.543Z,53.00
2018-06-22T17:34:41.879Z,53.08
2018-06-22T17:37:08.276Z,52.78
2018-06-22T17:39:34.615Z,52.76
2018-06-22T17:42:00.984Z,52.63
2018-06-22T17:44:27.317Z,52.37
2018-06-22T17:46:53.642Z,52.45
2018-06-22T17:49:19.974Z,52.42
2018-06-22T17:51:46.315Z,52.47
2018-06-22T17:54:12.675Z,52.30
2018-06-22T17:56:39.005Z,52.93
2018-06-22T17:59:05.397Z,53.01
2018-06-22T18:01:31.723Z,53.08
2018-06-22T18:03:58.057Z,53.93
2018-06-22T18:06:24.433Z,53.78
2018-06-22T18:08:50.765Z,53.86
2018-06-22T18:11:17.186Z,53.78
2018-06-22T18:13:43.511Z,54.19
2018-06-22T18:16:09.894Z,54.15
2018-06-22T18:18:36.264Z,54.05
2018-06-22T18:21:02.580Z,53.91
2018-06-22T18:23:28.909Z,53.85
2018-06-22T18:25:55.404Z,53.82
2018-06-22T18:28:21.725Z,53.78
2018-06-22T18:30:48.055Z,53.70
2018-06-22T18:33:14.435Z,54.00
2018-06-22T18:35:40.795Z,54.06
2018-06-22T18:38:07.116Z,54.03
2018-06-22T18:40:33.447Z,53.87
2018-06-22T18:42:59.764Z,53.97
2018-06-22T18:45:26.127Z,54.05
2018-06-22T18:47:52.472Z,54.09
2018-06-22T18:50:18.854Z,54.43
2018-06-22T18:52:45.221Z,54.23
2018-06-22T18:55:11.551Z,54.27
2018-06-22T18:57:37.988Z,54.45
2018-06-22T19:00:04.358Z,54.54
2018-06-22T19:02:30.693Z,54.65
2018-06-22T19:04:57.008Z,54.60
2018-06-22T19:07:23.409Z,55.09
2018-06-22T19:09:49.809Z,54.85
2018-06-22T19:12:16.161Z,54.71
2018-06-22T19:14:42.489Z,54.43
2018-06-22T19:17:08.865Z,54.58
2018-06-22T19:19:35.859Z,54.34
2018-06-22T19:22:02.184Z,54.61
2018-06-22T19:24:28.549Z,54.74
2018-06-22T19:26:54.876Z,54.60
2018-06-22T19:29:21.253Z,54.39
2018-06-22T19:31:47.610Z,54.51
2018-06-22T19:34:13.974Z,54.83
2018-06-22T19:36:40.331Z,54.67
2018-06-22T19:39:06.655Z,54.71
2018-06-22T19:41:33.128Z,54.43
2018-06-22T19:43:59.501Z,54.55
2018-06-22T19:46:25.828Z,54.40
2018-06-22T19:48:52.165Z,54.61
2018-06-22T19:51:18.530Z,54.58
2018-06-22T19:53:44.865Z,54.63
2018-06-22T19:56:11.201Z,54.77
2018-06-22T19:58:37.572Z,54.58
2018-06-22T20:01:03.939Z,54.74
2018-06-22T20:03:30.265Z,54.50
2018-06-22T20:05:56.581Z,54.56
2018-06-22T20:08:22.924Z,54.57
2018-06-22T20:10:49.256Z,54.51
2018-06-22T20:13:15.587Z,54.35
2018-06-22T20:15:41.913Z,54.27
2018-06-22T20:18:08.251Z,54.16
2018-06-22T20:20:34.567Z,54.52
2018-06-22T20:23:00.941Z,54.42
2018-06-22T20:25:27.313Z,54.31
2018-06-22T20:27:53.691Z,54.16
2018-06-22T20:30:20.055Z,53.98
2018-06-22T20:32:46.516Z,53.93
2018-06-22T20:35:12.860Z,54.00
2018-06-22T20:37:39.244Z,53.96
2018-06-22T20:40:05.667Z,53.92
2018-06-22T20:42:32.010Z,53.87
2018-06-22T20:44:58.381Z,53.86
2018-06-22T20:47:24.819Z,53.92
2018-06-22T20:49:51.150Z,53.87
2018-06-22T20:52:17.498Z,53.87
2018-06-22T20:54:43.840Z,53.85
2018-06-22T20:57:10.196Z,53.78
2018-06-22T20:59:36.571Z,53.63
2018-06-22T21:02:02.926Z,53.78
2018-06-22T21:04:29.290Z,53.77
2018-06-22T21:06:55.617Z,53.77
2018-06-22T21:09:22.015Z,53.61
2018-06-22T21:11:48.399Z,53.71
2018-06-22T21:14:14.773Z,53.35
2018-06-22T21:16:41.093Z,53.66
2018-06-22T21:19:07.507Z,53.12
2018-06-22T21:21:33.844Z,53.29
2018-06-22T21:24:00.209Z,53.35
2018-06-22T21:26:26.548Z,53.10
2018-06-22T21:28:52.894Z,53.18
2018-06-22T21:31:19.255Z,52.95
2018-06-22T21:33:45.578Z,53.03
2018-06-22T21:36:11.920Z,52.67
2018-06-22T21:38:38.246Z,52.86
2018-06-22T21:41:04.635Z,52.54
2018-06-22T21:43:30.963Z,52.83
2018-06-22T21:45:57.308Z,52.55
2018-06-22T21:48:23.699Z,52.50
2018-06-22T21:50:50.078Z,52.65
2018-06-22T21:53:16.437Z,52.31
2018-06-22T21:55:42.771Z,52.50
2018-06-22T21:58:09.196Z,52.41
2018-06-22T22:00:35.631Z,52.32
2018-06-22T22:03:01.989Z,52.17
2018-06-22T22:05:28.314Z,52.01
2018-06-22T22:07:54.642Z,51.89
2018-06-22T22:10:20.981Z,51.85
2018-06-22T22:12:47.330Z,51.76
2018-06-22T22:15:13.684Z,51.70
2018-06-22T22:17:39.994Z,51.51
2018-06-22T22:20:06.513Z,51.36
2018-06-22T22:22:32.881Z,51.26
2018-06-22T22:24:59.221Z,51.06
2018-06-22T22:27:25.588Z,51.01
2018-06-22T22:29:51.906Z,51.07
2018-06-22T22:32:18.279Z,51.05
2018-06-22T22:34:44.610Z,50.98
2018-06-22T22:37:10.972Z,50.94
2018-06-22T22:39:37.316Z,50.84
2018-06-22T22:42:03.640Z,50.59
2018-06-22T22:44:30.035Z,50.68
2018-06-22T22:46:56.397Z,50.50
2018-06-22T22:49:22.826Z,50.47
2018-06-22T22:51:49.134Z,50.50
2018-06-22T22:54:15.463Z,50.27
2018-06-22T22:56:41.792Z,50.17
2018-06-22T22:59:08.154Z,49.97
2018-06-22T23:01:34.588Z,50.11
2018-06-22T23:04:00.921Z,50.13
2018-06-22T23:06:27.307Z,49.74
2018-06-22T23:08:53.740Z,49.76
2018-06-22T23:11:20.081Z,49.67
2018-06-22T23:16:18.708Z,49.40
2018-06-22T23:18:45.037Z,49.63
2018-06-22T23:21:11.394Z,49.26
2018-06-22T23:23:37.775Z,49.36
2018-06-22T23:26:04.234Z,49.23
2018-06-22T23:28:30.558Z,49.01
2018-06-22T23:30:56.997Z,49.20
2018-06-22T23:33:23.361Z,49.18
2018-06-22T23:35:49.696Z,49.06
2018-06-22T23:38:16.011Z,49.03
2018-06-22T23:40:42.361Z,48.89
2018-06-22T23:43:08.802Z,48.71
2018-06-22T23:45:35.255Z,48.81
2018-06-22T23:48:01.576Z,48.72
2018-06-22T23:50:27.955Z,48.61
2018-06-22T23:52:54.276Z,48.57
2018-06-22T23:55:20.679Z,48.65
2018-06-22T23:57:47.031Z,48.40
